Time;durP1;ratioP1;P1;durP2;ratioP2;P2;SDS_P1;SDS_P2;PMS_P1;PMS_P2;Temp;Humidity;BMP_temperature;BMP_pressure;BME280_temperature;BME280_humidity;BME280_pressure;Samples;Min_cycle;Max_cycle;Signal;HPM_P1;HPM_P2
2022/01/14 00:01:39;;;;;;;44.50;19.05;;;;;;;2.18;100.00;103728.03;4992885;28;20109;-53
2022/01/14 00:04:05;;;;;;;50.92;18.75;;;;;;;2.20;100.00;103722.38;4993147;28;20474;-51
2022/01/14 00:06:30;;;;;;;49.38;20.08;;;;;;;2.16;100.00;103724.63;4992837;28;20068;-53
2022/01/14 00:09:04;;;;;;;57.05;21.08;;;;;;;2.14;100.00;103723.13;4996849;28;20052;-53
2022/01/14 00:11:31;;;;;;;;;;;;;;;2.27;100.00;103726.09;4997265;28;20022;-51
2022/01/14 00:16:31;;;;;;;50.05;19.58;;;;;;;2.17;100.00;103722.75;4996461;28;20489;-53
2022/01/14 00:18:59;;;;;;;51.75;18.98;;;;;;;2.15;100.00;103719.34;4996521;28;20040;-50
2022/01/14 00:21:28;;;;;;;49.15;20.30;;;;;;;2.14;100.00;103712.19;4996972;28;20030;-52
2022/01/14 00:24:05;;;;;;;52.55;20.67;;;;;;;2.11;100.00;103715.25;4996787;28;20072;-54
2022/01/14 00:32:06;;;;;;;45.10;19.33;;;;;;;2.05;100.00;103703.16;4996601;28;20069;-53
2022/01/14 00:34:31;;;;;;;50.72;19.50;;;;;;;2.02;100.00;103709.84;4996113;28;20401;-55
2022/01/14 00:36:58;;;;;;;53.47;20.23;;;;;;;2.08;100.00;103711.00;4996377;28;20072;-56
2022/01/14 00:39:23;;;;;;;50.00;20.17;;;;;;;2.04;100.00;103701.47;4996279;28;20503;-51
2022/01/14 00:41:49;;;;;;;49.58;19.55;;;;;;;2.09;100.00;103698.19;4996433;28;20026;-54
2022/01/14 00:44:16;;;;;;;42.28;18.63;;;;;;;2.05;100.00;103696.88;4995241;28;20034;-53
2022/01/14 00:46:43;;;;;;;44.40;18.17;;;;;;;1.99;100.00;103688.34;4995798;28;20031;-52
2022/01/14 00:49:09;;;;;;;61.95;20.05;;;;;;;1.97;100.00;103681.38;4996173;28;20026;-51
2022/01/14 00:51:35;;;;;;;57.20;19.42;;;;;;;1.97;100.00;103692.28;4995786;28;20026;-51
2022/01/14 00:54:02;;;;;;;44.65;17.25;;;;;;;1.96;100.00;103680.53;4994447;28;20394;-53
2022/01/14 00:56:33;;;;;;;47.28;17.88;;;;;;;2.00;100.00;103676.41;4995266;28;20046;-52
2022/01/14 00:59:14;;;;;;;45.30;18.45;;;;;;;1.97;100.00;103676.78;4995947;28;20034;-53
2022/01/14 01:01:40;;;;;;;53.83;16.60;;;;;;;1.94;100.00;103662.59;4995248;28;20066;-53
2022/01/14 01:04:05;;;;;;;47.42;17.80;;;;;;;1.91;100.00;103671.16;4995672;28;20422;-56
2022/01/14 01:06:31;;;;;;;38.55;15.82;;;;;;;1.89;100.00;103668.59;4995715;28;20103;-54
2022/01/14 01:08:57;;;;;;;52.03;16.85;;;;;;;1.88;100.00;103666.91;4995907;28;20405;-55
2022/01/14 01:11:30;;;;;;;41.67;15.50;;;;;;;1.91;100.00;103657.53;4995837;28;20026;-54
2022/01/14 01:14:16;;;;;;;40.97;16.00;;;;;;;1.89;100.00;103644.03;4995061;28;20041;-54
2022/01/14 01:16:41;;;;;;;44.33;15.85;;;;;;;1.86;100.00;103655.31;4995315;28;20030;-52
2022/01/14 01:19:07;;;;;;;49.85;16.33;;;;;;;1.78;100.00;103655.38;4993907;28;20037;-54
2022/01/14 01:21:33;;;;;;;43.38;15.57;;;;;;;1.77;100.00;103657.22;4995016;28;20490;-55
2022/01/14 01:23:59;;;;;;;50.65;17.42;;;;;;;1.74;100.00;103659.47;4995613;28;20093;-54
2022/01/14 01:26:35;;;;;;;34.67;15.70;;;;;;;1.71;100.00;103660.69;4995235;28;20026;-54
2022/01/14 01:31:39;;;;;;;39.22;16.73;;;;;;;1.71;100.00;103658.78;4995546;28;20125;-54
2022/01/14 01:34:06;;;;;;;36.15;15.18;;;;;;;1.73;100.00;103644.97;4994000;28;20101;-53
2022/01/14 01:36:32;;;;;;;36.60;16.58;;;;;;;1.71;100.00;103647.03;4994837;28;20038;-55
2022/01/14 01:38:58;;;;;;;47.38;17.17;;;;;;;1.74;100.00;103656.72;4995074;28;20033;-53
2022/01/14 01:41:24;;;;;;;47.65;16.20;;;;;;;1.72;100.00;103662.38;4994548;28;20113;-54
2022/01/14 01:43:54;;;;;;;38.10;16.10;;;;;;;1.78;100.00;103663.56;4995011;28;20038;-53
2022/01/14 01:46:20;;;;;;;41.30;16.35;;;;;;;1.75;100.00;103659.28;4993903;28;20031;-53
2022/01/14 01:48:47;;;;;;;35.03;15.73;;;;;;;1.73;100.00;103655.03;4994546;28;20053;-54
2022/01/14 01:51:13;;;;;;;38.90;15.93;;;;;;;1.74;100.00;103648.53;4994455;28;20030;-55
2022/01/14 01:53:38;;;;;;;42.83;16.25;;;;;;;1.76;100.00;103646.50;4994546;28;20077;-54
2022/01/14 01:56:04;;;;;;;41.38;15.18;;;;;;;1.73;100.00;103646.84;4994119;28;20046;-53
2022/01/14 01:58:29;;;;;;;40.63;15.50;;;;;;;1.78;100.00;103660.81;4994131;28;20085;-52
2022/01/14 02:00:55;;;;;;;36.83;15.65;;;;;;;1.74;100.00;103654.00;4994263;28;20114;-52
2022/01/14 02:03:20;;;;;;;39.45;15.85;;;;;;;1.73;100.00;103658.63;4993694;28;20038;-55
2022/01/14 02:05:46;;;;;;;41.55;15.98;;;;;;;1.70;100.00;103656.25;4993722;28;20026;-54
2022/01/14 02:08:12;;;;;;;36.13;14.70;;;;;;;1.70;100.00;103658.97;4993617;28;20038;-53
2022/01/14 02:10:38;;;;;;;38.03;14.75;;;;;;;1.65;100.00;103656.78;4994169;28;20449;-53
2022/01/14 02:13:05;;;;;;;37.88;14.93;;;;;;;1.68;100.00;103652.84;4994434;28;20507;-53
2022/01/14 02:16:11;;;;;;;40.00;15.77;;;;;;;1.65;100.00;103643.13;4994338;28;20030;-54
2022/01/14 02:18:49;;;;;;;45.07;15.33;;;;;;;1.67;100.00;103646.53;4993700;28;20030;-53
2022/01/14 02:24:19;;;;;;;42.30;15.73;;;;;;;1.55;100.00;103637.91;4994770;28;20120;-53
2022/01/14 02:26:51;;;;;;;37.63;15.18;;;;;;;1.51;100.00;103625.63;4993933;28;20038;-54
2022/01/14 02:29:17;;;;;;;40.58;14.00;;;;;;;1.52;100.00;103640.97;4994436;28;20482;-53
2022/01/14 02:31:43;;;;;;;43.33;16.05;;;;;;;1.52;100.00;103642.81;4994066;28;20105;-55
2022/01/14 02:34:10;;;;;;;47.65;15.88;;;;;;;1.50;100.00;103631.25;4994230;28;20022;-53
2022/01/14 02:36:39;;;;;;;50.13;14.35;;;;;;;1.51;100.00;103635.69;4993275;28;20033;-53
2022/01/14 02:39:04;;;;;;;33.78;14.57;;;;;;;1.51;100.00;103639.25;4994025;28;20133;-55
2022/01/14 02:41:29;;;;;;;38.25;15.43;;;;;;;1.53;100.00;103637.22;4993821;28;20538;-54
2022/01/14 02:43:56;;;;;;;36.85;13.57;;;;;;;1.54;100.00;103636.19;4993911;28;20034;-52
2022/01/14 02:46:21;;;;;;;35.13;14.90;;;;;;;1.53;100.00;103637.22;4993594;28;20045;-54
2022/01/14 02:48:47;;;;;;;36.30;14.35;;;;;;;1.54;100.00;103635.31;4993881;28;20363;-55
2022/01/14 02:51:14;;;;;;;34.83;14.45;;;;;;;1.55;100.00;103631.56;4993373;28;20113;-53
2022/01/14 02:56:15;;;;;;;37.80;14.27;;;;;;;1.44;100.00;103610.13;4993497;28;20561;-55
2022/01/14 02:58:42;;;;;;;38.05;14.73;;;;;;;1.42;100.00;103620.38;4993596;28;20528;-53
2022/01/14 03:01:14;;;;;;;44.20;15.27;;;;;;;1.44;100.00;103611.00;4993181;28;20030;-53
2022/01/14 03:03:43;;;;;;;48.78;16.27;;;;;;;1.38;100.00;103623.44;4993586;28;20163;-53
2022/01/14 03:06:08;;;;;;;36.63;15.48;;;;;;;1.39;100.00;103619.69;4993518;28;20029;-53
2022/01/14 03:08:34;;;;;;;32.17;13.48;;;;;;;1.44;100.00;103618.31;4993088;28;20022;-53
2022/01/14 03:11:11;;;;;;;34.85;14.55;;;;;;;1.37;100.00;103605.38;4993387;28;20027;-53
2022/01/14 03:13:37;;;;;;;34.63;14.00;;;;;;;1.45;100.00;103620.00;4991090;28;20022;-54
2022/01/14 03:16:03;;;;;;;46.78;14.98;;;;;;;1.47;100.00;103616.06;4992510;28;20073;-51
2022/01/14 03:18:47;;;;;;;43.88;14.30;;;;;;;1.43;100.00;103619.31;4992352;28;20026;-52
2022/01/14 03:21:15;;;;;;;;;;;;;;;1.49;100.00;103618.66;4993052;28;20077;-50
2022/01/14 03:23:48;;;;;;;30.83;12.90;;;;;;;1.37;100.00;103608.09;4992339;28;19914;-54
2022/01/14 03:26:19;;;;;;;30.95;14.27;;;;;;;1.32;100.00;103605.06;4991642;28;20027;-53
2022/01/14 03:28:45;;;;;;;40.13;14.32;;;;;;;1.43;100.00;103622.06;4991939;28;20054;-53
2022/01/14 03:31:11;;;;;;;43.45;14.48;;;;;;;1.39;100.00;103616.09;4993196;28;20026;-53
2022/01/14 03:33:37;;;;;;;43.97;14.38;;;;;;;1.35;100.00;103614.78;4992429;28;20552;-54
2022/01/14 03:36:04;;;;;;;44.10;14.85;;;;;;;1.28;100.00;103611.03;4992802;28;20038;-54
2022/01/14 03:38:30;;;;;;;42.72;14.73;;;;;;;1.32;100.00;103623.28;4992589;28;20481;-52
2022/01/14 03:40:55;;;;;;;34.35;14.02;;;;;;;1.30;100.00;103606.25;4992758;28;20037;-54
2022/01/14 03:43:20;;;;;;;44.72;13.65;;;;;;;1.36;100.00;103611.03;4995793;28;20030;-53
2022/01/14 03:45:48;;;;;;;38.55;14.73;;;;;;;1.36;100.00;103605.56;4997302;28;20033;-52
2022/01/14 03:48:14;;;;;;;55.58;15.20;;;;;;;1.34;100.00;103597.53;4996956;28;20022;-52
2022/01/14 03:50:41;;;;;;;48.55;14.55;;;;;;;1.29;100.00;103599.09;4997222;28;20061;-54
2022/01/14 03:53:06;;;;;;;42.75;15.02;;;;;;;1.26;100.00;103604.91;4996518;28;20033;-57
2022/01/14 03:55:31;;;;;;;37.85;14.55;;;;;;;1.27;100.00;103601.16;4996011;28;20030;-52
2022/01/14 03:57:56;;;;;;;45.03;14.60;;;;;;;1.25;100.00;103595.88;4996939;28;20038;-55
2022/01/14 04:00:22;;;;;;;32.38;14.05;;;;;;;1.28;100.00;103598.25;4996713;28;20436;-51
2022/01/14 04:02:47;;;;;;;52.75;15.38;;;;;;;1.29;100.00;103599.09;4996681;28;20037;-52
2022/01/14 04:05:14;;;;;;;52.22;13.68;;;;;;;1.37;100.00;103596.34;4996698;28;20026;-50
2022/01/14 04:07:41;;;;;;;36.70;13.88;;;;;;;1.35;100.00;103593.78;4996685;28;20033;-52
2022/01/14 04:10:10;;;;;;;37.28;13.27;;;;;;;1.38;100.00;103589.84;4996300;28;20022;-51
2022/01/14 04:15:37;;;;;;;46.55;14.18;;;;;;;1.33;100.00;103598.56;4997063;28;20041;-52
2022/01/14 04:18:08;;;;;;;50.85;14.77;;;;;;;1.32;100.00;103590.56;4996184;28;20058;-52
2022/01/14 04:20:35;;;;;;;39.60;13.60;;;;;;;1.36;100.00;103586.47;4996595;28;20027;-52
2022/01/14 04:23:01;;;;;;;45.95;13.90;;;;;;;1.33;100.00;103589.53;4996802;28;20042;-53
2022/01/14 04:25:27;;;;;;;35.70;12.88;;;;;;;1.28;100.00;103590.06;4996141;28;20470;-50
2022/01/14 04:27:52;;;;;;;39.42;13.82;;;;;;;1.31;100.00;103589.72;4996063;28;20031;-51
2022/01/14 04:30:18;;;;;;;37.58;12.75;;;;;;;1.31;100.00;103597.91;4996486;28;20053;-52
2022/01/14 04:32:44;;;;;;;37.38;13.20;;;;;;;1.33;100.00;103598.56;4996533;28;20030;-53
2022/01/14 04:35:09;;;;;;;41.78;12.73;;;;;;;1.32;100.00;103593.28;4995850;28;20117;-52
2022/01/14 04:37:35;;;;;;;50.55;13.75;;;;;;;1.34;100.00;103586.63;4995843;28;20036;-55
2022/01/14 04:40:01;;;;;;;40.42;13.15;;;;;;;1.35;100.00;103582.88;4994623;28;20026;-52
2022/01/14 04:42:27;;;;;;;41.58;13.55;;;;;;;1.35;100.00;103577.41;4995916;28;20109;-55
2022/01/14 04:44:55;;;;;;;43.20;12.18;;;;;;;1.37;100.00;103575.38;4996021;28;20549;-53
2022/01/14 04:47:44;;;;;;;35.03;12.68;;;;;;;1.35;100.00;103568.41;4996273;28;20038;-54
2022/01/14 04:50:11;;;;;;;42.03;13.27;;;;;;;1.31;100.00;103569.78;4995850;28;20065;-52
2022/01/14 04:52:37;;;;;;;37.10;13.90;;;;;;;1.29;100.00;103571.81;4996123;28;20038;-52
2022/01/14 04:55:02;;;;;;;37.22;13.10;;;;;;;1.28;100.00;103570.09;4993866;28;20038;-51
2022/01/14 04:57:28;;;;;;;38.20;14.70;;;;;;;1.20;100.00;103569.13;4995789;28;20089;-55
2022/01/14 04:59:53;;;;;;;38.28;13.18;;;;;;;1.16;100.00;103556.88;4996995;28;20046;-55
2022/01/14 05:02:18;;;;;;;41.20;14.15;;;;;;;1.15;100.00;103557.03;4995612;28;20508;-55
2022/01/14 05:04:45;;;;;;;31.13;13.13;;;;;;;1.15;100.00;103548.84;4995023;28;20029;-52
2022/01/14 05:07:21;;;;;;;40.85;14.10;;;;;;;1.13;100.00;103535.41;4995755;28;20030;-55
2022/01/14 05:09:56;;;;;;;45.90;13.73;;;;;;;1.07;100.00;103533.41;4995617;28;20034;-54
2022/01/14 05:12:21;;;;;;;37.38;14.48;;;;;;;1.03;100.00;103534.75;4995319;28;20034;-53
2022/01/14 05:14:47;;;;;;;41.00;13.13;;;;;;;1.04;100.00;103529.13;4995316;28;20403;-51
2022/01/14 05:17:12;;;;;;;35.40;14.05;;;;;;;1.02;100.00;103527.59;4995265;28;20022;-52
2022/01/14 05:19:39;;;;;;;44.60;14.45;;;;;;;1.01;100.00;103537.69;4995287;28;20073;-49
2022/01/14 05:22:04;;;;;;;48.58;14.20;;;;;;;0.99;100.00;103542.44;4995108;28;20109;-49
2022/01/14 05:24:30;;;;;;;47.25;13.40;;;;;;;0.97;100.00;103541.75;4995245;28;20450;-54
2022/01/14 05:26:55;;;;;;;36.97;13.18;;;;;;;0.95;100.00;103535.63;4994626;28;20034;-53
2022/01/14 05:29:20;;;;;;;38.78;13.45;;;;;;;0.94;100.00;103544.84;4995183;28;20508;-52
2022/01/14 05:31:51;;;;;;;36.08;13.60;;;;;;;0.92;100.00;103544.19;4994762;28;20041;-51
2022/01/14 05:34:17;;;;;;;58.30;14.70;;;;;;;0.95;100.00;103541.09;4994424;28;20029;-51
2022/01/14 05:36:43;;;;;;;38.63;12.68;;;;;;;0.93;100.00;103538.53;4994973;28;20042;-53
2022/01/14 05:39:10;;;;;;;46.10;13.80;;;;;;;0.94;100.00;103536.69;4995264;28;20058;-54
2022/01/14 05:41:35;;;;;;;41.22;13.27;;;;;;;0.93;100.00;103545.88;4995042;28;20022;-53
2022/01/14 05:44:01;;;;;;;40.63;13.52;;;;;;;0.88;100.00;103540.94;4994700;28;20043;-53
2022/01/14 05:46:27;;;;;;;38.15;13.95;;;;;;;0.86;100.00;103537.53;4995119;28;20437;-53
2022/01/14 05:48:52;;;;;;;41.63;12.70;;;;;;;0.88;100.00;103542.81;4995009;28;20038;-54
2022/01/14 05:51:18;;;;;;;41.58;13.65;;;;;;;0.90;100.00;103532.59;4994954;28;20093;-53
2022/01/14 05:53:43;;;;;;;34.35;12.63;;;;;;;0.93;100.00;103530.34;4994291;28;20029;-53
2022/01/14 05:56:08;;;;;;;40.10;13.77;;;;;;;0.90;100.00;103529.88;4994661;28;20548;-54
2022/01/14 05:58:35;;;;;;;35.05;13.40;;;;;;;0.90;100.00;103519.78;4993973;28;20057;-51
2022/01/14 06:01:00;;;;;;;36.45;13.75;;;;;;;0.84;100.00;103520.50;4994069;28;20074;-52
2022/01/14 06:03:25;;;;;;;39.35;13.93;;;;;;;0.79;100.00;103520.19;4993924;28;20026;-52
2022/01/14 06:05:51;;;;;;;33.38;13.82;;;;;;;0.80;100.00;103530.06;4993622;28;20100;-53
2022/01/14 06:08:17;;;;;;;30.02;12.65;;;;;;;0.82;100.00;103536.19;4994266;28;20042;-52
2022/01/14 06:10:42;;;;;;;41.22;13.57;;;;;;;0.83;100.00;103539.78;4994354;28;20026;-55
2022/01/14 06:13:07;;;;;;;31.38;13.70;;;;;;;0.81;100.00;103541.81;4993038;28;20485;-54
2022/01/14 06:15:32;;;;;;;35.53;13.65;;;;;;;0.76;100.00;103547.78;4994186;28;20030;-54
2022/01/14 06:17:58;;;;;;;36.45;14.50;;;;;;;0.76;100.00;103547.78;4994414;28;20022;-54
2022/01/14 06:20:23;;;;;;;36.42;13.20;;;;;;;0.83;100.00;103554.22;4994211;28;20029;-55
2022/01/14 06:22:49;;;;;;;36.63;12.80;;;;;;;0.84;100.00;103539.59;4994969;28;20106;-56
2022/01/14 06:25:14;;;;;;;45.35;13.45;;;;;;;0.79;100.00;103550.16;4994228;28;20041;-53
2022/01/14 06:27:39;;;;;;;40.10;13.95;;;;;;;0.74;100.00;103541.66;4993866;28;20517;-51
2022/01/14 06:30:06;;;;;;;36.25;12.57;;;;;;;0.68;100.00;103547.81;4993845;28;20030;-52
2022/01/14 06:32:31;;;;;;;41.47;13.95;;;;;;;0.62;100.00;103546.63;4992028;28;20022;-56
2022/01/14 06:34:56;;;;;;;34.05;12.90;;;;;;;0.61;100.00;103542.19;4993584;28;20081;-52
2022/01/14 06:37:22;;;;;;;40.80;13.65;;;;;;;0.66;100.00;103536.22;4994015;28;20088;-52
2022/01/14 06:39:47;;;;;;;38.42;12.70;;;;;;;0.64;100.00;103540.97;4993762;28;20022;-55
2022/01/14 06:42:12;;;;;;;39.35;13.02;;;;;;;0.60;100.00;103546.81;4993710;28;20038;-53
2022/01/14 06:44:38;;;;;;;31.95;12.48;;;;;;;0.62;100.00;103542.00;4993819;28;20041;-53
2022/01/14 06:47:03;;;;;;;35.33;13.05;;;;;;;0.60;100.00;103540.47;4991933;28;20030;-49
2022/01/14 06:49:28;;;;;;;38.05;14.02;;;;;;;0.54;100.00;103541.19;4994321;28;20046;-51
2022/01/14 06:51:54;;;;;;;29.90;12.85;;;;;;;0.51;100.00;103539.66;4993065;28;20034;-51
2022/01/14 06:54:19;;;;;;;37.17;13.00;;;;;;;0.48;100.00;103540.00;4993883;28;20038;-53
2022/01/14 06:56:44;;;;;;;37.17;13.55;;;;;;;0.47;100.00;103546.47;4993752;28;20058;-51
2022/01/14 06:59:10;;;;;;;38.05;12.63;;;;;;;0.44;100.00;103547.66;4993147;28;20449;-54
2022/01/14 07:01:35;;;;;;;36.35;12.65;;;;;;;0.41;100.00;103548.00;4992363;28;20058;-52
2022/01/14 07:04:00;;;;;;;36.70;12.65;;;;;;;0.43;100.00;103553.25;4993078;28;20194;-51
2022/01/14 07:06:26;;;;;;;41.63;12.85;;;;;;;0.42;100.00;103532.53;4993366;28;20437;-53
2022/01/14 07:08:51;;;;;;;45.97;14.20;;;;;;;0.44;100.00;103536.75;4993397;28;20030;-52
2022/01/14 07:11:18;;;;;;;37.50;13.45;;;;;;;0.43;100.00;103531.47;4993152;28;20552;-54
2022/01/14 07:13:43;;;;;;;47.65;13.90;;;;;;;0.39;100.00;103536.41;4993263;28;20481;-52
2022/01/14 07:16:08;;;;;;;32.38;12.27;;;;;;;0.41;100.00;103544.44;4992356;28;20081;-52
2022/01/14 07:18:33;;;;;;;50.50;13.60;;;;;;;0.35;100.00;103542.38;4992426;28;20019;-52
2022/01/14 07:20:59;;;;;;;47.30;13.40;;;;;;;0.36;100.00;103534.06;4993020;28;20027;-51
2022/01/14 07:23:24;;;;;;;39.70;13.40;;;;;;;0.32;100.00;103540.84;4993028;28;20030;-54
2022/01/14 07:25:49;;;;;;;43.70;12.98;;;;;;;0.35;100.00;103550.53;4993565;28;20389;-51
2022/01/14 07:28:14;;;;;;;42.85;13.65;;;;;;;0.39;100.00;103550.03;4993297;28;20026;-54
2022/01/14 07:30:40;;;;;;;48.25;14.45;;;;;;;0.39;100.00;103560.09;4992814;28;20386;-54
2022/01/14 07:33:05;;;;;;;45.97;14.43;;;;;;;0.38;100.00;103559.22;4993348;28;20076;-53
2022/01/14 07:35:30;;;;;;;42.17;13.70;;;;;;;0.44;100.00;103561.28;4992444;28;20124;-53
2022/01/14 07:37:56;;;;;;;51.20;13.52;;;;;;;0.43;100.00;103550.53;4993001;28;20497;-53
2022/01/14 07:40:21;;;;;;;47.15;13.80;;;;;;;0.40;100.00;103550.91;4993394;28;20389;-52
2022/01/14 07:42:47;;;;;;;51.58;14.57;;;;;;;0.36;100.00;103558.56;4993029;28;20089;-50
2022/01/14 07:45:12;;;;;;;42.35;13.85;;;;;;;0.37;100.00;103563.00;4993599;28;20030;-52
2022/01/14 07:47:38;;;;;;;51.33;14.88;;;;;;;0.33;100.00;103555.34;4993375;28;20054;-53
2022/01/14 07:50:04;;;;;;;43.13;14.00;;;;;;;0.38;100.00;103563.81;4993515;28;20085;-51
2022/01/14 07:52:29;;;;;;;41.47;13.63;;;;;;;0.32;100.00;103564.53;4993197;28;20434;-52
2022/01/14 07:54:54;;;;;;;54.83;14.60;;;;;;;0.33;100.00;103564.34;4992821;28;20038;-52
2022/01/14 07:57:20;;;;;;;45.15;13.70;;;;;;;0.41;100.00;103561.63;4993114;28;20055;-52
2022/01/14 07:59:45;;;;;;;51.08;14.60;;;;;;;0.47;100.00;103552.75;4993292;28;20025;-55
2022/01/14 08:02:12;;;;;;;44.58;13.55;;;;;;;0.46;100.00;103537.44;4992779;28;20433;-54
2022/01/14 08:04:38;;;;;;;36.40;13.73;;;;;;;0.45;100.00;103543.06;4991871;28;20065;-54
2022/01/14 08:07:10;;;;;;;40.05;12.63;;;;;;;0.42;100.00;103546.13;4993124;28;20054;-52
2022/01/14 08:09:40;;;;;;;43.45;13.35;;;;;;;0.42;100.00;103538.81;4993628;28;20121;-52
2022/01/14 08:12:06;;;;;;;36.75;13.10;;;;;;;0.40;100.00;103532.66;4993132;28;20118;-52
2022/01/14 08:14:32;;;;;;;51.00;14.80;;;;;;;0.35;100.00;103540.50;4975634;28;20031;-55
2022/01/14 08:16:58;;;;;;;38.10;13.52;;;;;;;0.39;100.00;103532.84;4993147;28;20089;-53
2022/01/14 08:19:23;;;;;;;49.90;13.95;;;;;;;0.36;100.00;103531.31;4993141;28;20034;-55
2022/01/14 08:21:48;;;;;;;51.38;14.40;;;;;;;0.32;100.00;103538.13;4993143;28;20026;-52
2022/01/14 08:24:13;;;;;;;51.25;13.93;;;;;;;0.40;100.00;103535.38;4992846;28;20023;-50
2022/01/14 08:26:39;;;;;;;60.60;14.77;;;;;;;0.41;100.00;103550.72;4992435;28;20030;-54
2022/01/14 08:29:04;;;;;;;49.58;14.35;;;;;;;0.43;100.00;103559.56;4986396;28;20054;-52
2022/01/14 08:31:29;;;;;;;66.18;13.65;;;;;;;0.45;100.00;103552.09;4979910;28;20035;-54
2022/01/14 08:33:55;;;;;;;49.33;13.55;;;;;;;0.50;100.00;103556.16;4990217;28;20030;-55
2022/01/14 08:36:20;;;;;;;41.22;13.10;;;;;;;0.54;100.00;103571.97;4984172;28;20032;-53
2022/01/14 08:38:46;;;;;;;43.00;13.70;;;;;;;0.59;100.00;103556.00;4984640;28;20097;-52
2022/01/14 08:41:11;;;;;;;48.88;14.10;;;;;;;0.66;100.00;103550.72;4983663;28;20037;-56
2022/01/14 08:43:36;;;;;;;47.90;13.93;;;;;;;0.69;100.00;103554.97;4977391;28;20027;-54
2022/01/14 08:46:02;;;;;;;48.97;14.63;;;;;;;0.70;100.00;103562.94;4976912;28;20363;-55
2022/01/14 08:48:30;;;;;;;38.70;14.18;;;;;;;0.71;100.00;103561.09;4977003;28;20073;-55
2022/01/14 08:50:56;;;;;;;48.55;13.27;;;;;;;0.77;100.00;103554.94;4977132;28;20069;-55
2022/01/14 08:53:21;;;;;;;44.13;14.55;;;;;;;0.77;100.00;103569.41;4976769;28;20062;-53
2022/01/14 08:55:46;;;;;;;48.95;14.15;;;;;;;0.85;100.00;103570.44;4976389;28;20106;-52
2022/01/14 08:58:11;;;;;;;42.97;13.82;;;;;;;0.84;100.00;103553.22;4975262;28;20427;-54
2022/01/14 09:00:38;;;;;;;42.85;14.25;;;;;;;0.88;100.00;103557.31;4976399;28;20030;-52
2022/01/14 09:03:04;;;;;;;35.67;13.65;;;;;;;0.94;100.00;103555.75;4975848;28;20082;-51
2022/01/14 09:05:30;;;;;;;45.72;14.85;;;;;;;0.98;100.00;103546.19;4975473;28;20030;-54
2022/01/14 09:07:55;;;;;;;50.50;14.70;;;;;;;1.03;100.00;103546.53;4974935;28;20034;-51
2022/01/14 09:10:21;;;;;;;52.28;14.75;;;;;;;1.06;100.00;103548.88;4975319;28;20027;-55
2022/01/14 09:12:47;;;;;;;56.58;14.75;;;;;;;1.05;100.00;103557.25;4976168;28;20034;-53
2022/01/14 09:15:13;;;;;;;48.80;14.45;;;;;;;1.12;100.00;103547.34;4976329;28;20027;-54
2022/01/14 09:17:40;;;;;;;40.65;14.18;;;;;;;1.11;100.00;103548.38;4976461;28;20027;-55
2022/01/14 09:20:07;;;;;;;41.50;13.40;;;;;;;1.13;100.00;103543.59;4975425;28;20046;-53
2022/01/14 09:22:34;;;;;;;49.22;15.20;;;;;;;1.10;100.00;103549.38;4975484;28;20042;-51
2022/01/14 09:25:00;;;;;;;40.88;14.32;;;;;;;1.11;100.00;103553.81;4975636;28;20027;-55
2022/01/14 09:27:28;;;;;;;44.15;15.30;;;;;;;1.07;100.00;103561.50;4976119;28;20045;-53
2022/01/14 09:29:56;;;;;;;50.75;15.27;;;;;;;1.05;100.00;103566.28;4976414;28;20033;-53
2022/01/14 09:32:22;;;;;;;50.33;15.70;;;;;;;1.10;100.00;103565.75;4975461;28;20031;-51
2022/01/14 09:34:48;;;;;;;43.00;14.88;;;;;;;1.08;100.00;103570.53;4975812;28;20182;-55
2022/01/14 09:37:13;;;;;;;35.03;14.88;;;;;;;1.17;100.00;103574.06;4976257;28;20484;-54
2022/01/14 09:39:43;;;;;;;39.13;15.65;;;;;;;1.14;100.00;103572.56;4974904;28;20031;-52
2022/01/14 09:42:09;;;;;;;35.90;14.27;;;;;;;1.21;100.00;103575.44;4976389;28;20038;-51
2022/01/14 09:44:34;;;;;;;42.63;15.15;;;;;;;1.21;100.00;103557.19;4976817;28;20485;-53
2022/01/14 09:46:59;;;;;;;42.88;15.35;;;;;;;1.23;100.00;103581.53;4976226;28;20035;-55
2022/01/14 09:49:25;;;;;;;41.47;15.32;;;;;;;1.25;100.00;103582.22;4976485;28;20105;-54
2022/01/14 09:51:50;;;;;;;42.25;14.77;;;;;;;1.26;100.00;103586.66;4976122;28;20418;-55
2022/01/14 09:54:15;;;;;;;43.17;15.10;;;;;;;1.25;100.00;103579.50;4975861;28;20027;-54
2022/01/14 09:56:45;;;;;;;44.05;16.50;;;;;;;1.22;100.00;103586.16;4975953;28;20133;-56
2022/01/14 09:59:10;;;;;;;35.40;15.25;;;;;;;1.23;100.00;103595.19;4975991;28;20394;-55
2022/01/14 10:01:43;;;;;;;37.38;15.65;;;;;;;1.23;100.00;103585.16;4973773;28;20118;-53
2022/01/14 10:04:21;;;;;;;40.50;16.33;;;;;;;1.21;100.00;103589.91;4987878;28;20061;-55
2022/01/14 10:06:51;;;;;;;43.90;17.38;;;;;;;1.22;100.00;103582.59;4991696;28;20046;-53
2022/01/14 10:09:39;;;;;;;45.25;17.30;;;;;;;1.28;100.00;103578.28;4990188;28;20023;-52
2022/01/14 10:12:13;;;;;;;37.33;16.30;;;;;;;1.37;100.00;103582.72;4989909;28;20399;-52
2022/01/14 10:14:40;;;;;;;40.00;15.98;;;;;;;1.41;100.00;103581.31;4990577;28;20026;-50
2022/01/14 10:17:08;;;;;;;40.00;16.30;;;;;;;1.33;100.00;103565.00;4992319;28;20040;-54
2022/01/14 10:19:43;;;;;;;43.50;16.48;;;;;;;1.48;100.00;103571.41;4991734;28;20441;-53
2022/01/14 10:22:22;;;;;;;33.85;16.42;;;;;;;1.53;100.00;103585.38;4991944;28;20027;-52
2022/01/14 10:25:07;;;;;;;34.42;15.60;;;;;;;1.52;100.00;103575.47;4991847;28;20510;-55
2022/01/14 10:27:37;;;;;;;34.13;15.63;;;;;;;1.57;100.00;103585.88;4971639;28;20034;-56
2022/01/14 10:30:28;;;;;;;39.42;16.65;;;;;;;1.58;100.00;103583.97;4972947;28;20033;-53
2022/01/14 10:32:56;;;;;;;37.45;15.98;;;;;;;1.55;100.00;103564.22;4965066;28;20054;-51
2022/01/14 10:35:23;;;;;;;35.65;15.68;;;;;;;1.58;100.00;103579.38;4972632;28;20372;-52
2022/01/14 10:37:48;;;;;;;38.10;18.10;;;;;;;1.59;100.00;103572.91;4970632;28;20114;-53
2022/01/14 10:40:18;;;;;;;39.88;17.17;;;;;;;1.54;100.00;103565.25;4979273;28;20154;-54
2022/01/14 10:42:45;;;;;;;34.65;16.88;;;;;;;1.59;100.00;103572.91;4991475;28;20378;-51
2022/01/14 10:45:25;;;;;;;32.10;15.98;;;;;;;1.58;100.00;103575.78;4991883;28;20030;-54
2022/01/14 10:48:18;;;;;;;36.70;16.77;;;;;;;1.60;100.00;103574.59;4991973;28;20066;-52
2022/01/14 10:50:46;;;;;;;33.85;16.08;;;;;;;1.56;100.00;103560.44;4992048;28;20062;-53
2022/01/14 10:53:14;;;;;;;33.10;16.85;;;;;;;1.55;100.00;103564.22;4991873;28;20038;-55
2022/01/14 10:55:45;;;;;;;31.83;15.65;;;;;;;1.59;100.00;103553.78;4991558;28;20050;-53
2022/01/14 10:58:27;;;;;;;30.75;15.23;;;;;;;1.70;100.00;103561.56;4991464;28;20236;-54
2022/01/14 11:01:02;;;;;;;30.95;16.05;;;;;;;1.80;100.00;103557.75;4992024;28;20078;-55
2022/01/14 11:03:42;;;;;;;30.35;15.23;;;;;;;1.84;100.00;103545.44;4990885;28;20065;-52
2022/01/14 11:06:40;;;;;;;32.58;16.33;;;;;;;1.97;100.00;103542.97;4991015;28;20134;-53
2022/01/14 11:09:11;;;;;;;35.20;16.55;;;;;;;2.00;100.00;103548.06;4991193;28;20045;-53
2022/01/14 11:11:40;;;;;;;31.15;15.30;;;;;;;1.99;100.00;103529.13;4991336;28;20030;-53
2022/01/14 11:14:07;;;;;;;33.47;17.60;;;;;;;2.01;100.00;103543.47;4989893;28;20030;-53
2022/01/14 11:16:34;;;;;;;31.70;15.98;;;;;;;2.09;100.00;103543.41;4991447;28;20023;-53
2022/01/14 11:19:01;;;;;;;37.45;18.55;;;;;;;2.12;100.00;103533.97;4991591;28;20026;-55
2022/01/14 11:24:13;;;;;;;36.30;19.23;;;;;;;2.16;100.00;103535.34;4990931;28;20579;-53
2022/01/14 11:26:40;;;;;;;33.75;18.60;;;;;;;2.18;100.00;103539.56;4989711;28;20034;-51
2022/01/14 11:29:12;;;;;;;35.05;18.40;;;;;;;2.24;100.00;103543.47;4991603;28;20171;-54
2022/01/14 11:31:39;;;;;;;34.70;20.00;;;;;;;2.25;100.00;103538.81;4991471;28;20051;-55
2022/01/14 11:34:08;;;;;;;35.85;19.52;;;;;;;2.25;100.00;103531.50;4991400;28;20136;-52